sensor_id;sensor_type;location;lat;lon;timestamp;P1;durP1;ratioP1;P2;durP2;ratioP2
50124;SDS011;36023;48.670;6.184;2023-02-28T00:01:10;0.10;;;0.10;;
50124;SDS011;36023;48.670;6.184;2023-02-28T00:03:40;0.80;;;0.30;;
50124;SDS011;36023;48.670;6.184;2023-02-28T00:06:07;2.08;;;0.10;;
50124;SDS011;36023;48.670;6.184;2023-02-28T00:08:35;0.22;;;0.17;;
50124;SDS011;36023;48.670;6.184;2023-02-28T00:11:05;0.20;;;0.10;;
50124;SDS011;36023;48.670;6.184;2023-02-28T00:13:33;0.20;;;0.13;;
50124;SDS011;36023;48.670;6.184;2023-02-28T00:16:05;0.15;;;0.10;;
50124;SDS011;36023;48.670;6.184;2023-02-28T00:18:32;0.43;;;0.30;;
50124;SDS011;36023;48.670;6.184;2023-02-28T00:20:58;0.55;;;0.30;;
50124;SDS011;36023;48.670;6.184;2023-02-28T00:23:24;0.35;;;0.10;;
50124;SDS011;36023;48.670;6.184;2023-02-28T00:25:51;0.82;;;0.20;;
50124;SDS011;36023;48.670;6.184;2023-02-28T00:28:17;0.13;;;0.10;;
50124;SDS011;36023;48.670;6.184;2023-02-28T00:30:43;0.10;;;0.10;;
50124;SDS011;36023;48.670;6.184;2023-02-28T00:33:09;0.30;;;0.20;;
50124;SDS011;36023;48.670;6.184;2023-02-28T00:35:35;0.43;;;0.20;;
50124;SDS011;36023;48.670;6.184;2023-02-28T00:38:01;0.85;;;0.15;;
50124;SDS011;36023;48.670;6.184;2023-02-28T00:40:28;1.65;;;0.80;;
50124;SDS011;36023;48.670;6.184;2023-02-28T00:42:54;0.52;;;0.20;;
50124;SDS011;36023;48.670;6.184;2023-02-28T00:45:20;0.40;;;0.30;;
50124;SDS011;36023;48.670;6.184;2023-02-28T00:47:46;0.25;;;0.10;;
50124;SDS011;36023;48.670;6.184;2023-02-28T00:50:16;0.38;;;0.30;;
50124;SDS011;36023;48.670;6.184;2023-02-28T00:52:44;0.38;;;0.10;;
50124;SDS011;36023;48.670;6.184;2023-02-28T00:55:14;0.60;;;0.20;;
50124;SDS011;36023;48.670;6.184;2023-02-28T00:57:41;0.65;;;0.20;;
50124;SDS011;36023;48.670;6.184;2023-02-28T01:00:08;0.45;;;0.30;;
50124;SDS011;36023;48.670;6.184;2023-02-28T01:02:35;0.20;;;0.10;;
50124;SDS011;36023;48.670;6.184;2023-02-28T01:05:02;0.63;;;0.40;;
50124;SDS011;36023;48.670;6.184;2023-02-28T01:07:29;0.13;;;0.08;;
50124;SDS011;36023;48.670;6.184;2023-02-28T01:09:54;0.50;;;0.20;;
50124;SDS011;36023;48.670;6.184;2023-02-28T01:12:20;0.20;;;0.10;;
50124;SDS011;36023;48.670;6.184;2023-02-28T01:14:46;0.35;;;0.10;;
50124;SDS011;36023;48.670;6.184;2023-02-28T01:17:12;0.10;;;0.10;;
50124;SDS011;36023;48.670;6.184;2023-02-28T01:19:38;0.43;;;0.28;;
50124;SDS011;36023;48.670;6.184;2023-02-28T01:22:04;0.10;;;0.10;;
50124;SDS011;36023;48.670;6.184;2023-02-28T01:24:30;0.20;;;0.20;;
50124;SDS011;36023;48.670;6.184;2023-02-28T01:26:56;0.22;;;0.10;;
50124;SDS011;36023;48.670;6.184;2023-02-28T01:29:22;0.88;;;0.22;;
50124;SDS011;36023;48.670;6.184;2023-02-28T01:31:48;0.17;;;0.10;;
50124;SDS011;36023;48.670;6.184;2023-02-28T01:34:14;0.32;;;0.10;;
50124;SDS011;36023;48.670;6.184;2023-02-28T01:36:40;1.23;;;0.30;;
50124;SDS011;36023;48.670;6.184;2023-02-28T01:39:05;0.10;;;0.10;;
50124;SDS011;36023;48.670;6.184;2023-02-28T01:41:34;1.17;;;0.10;;
50124;SDS011;36023;48.670;6.184;2023-02-28T01:44:04;0.45;;;0.45;;
50124;SDS011;36023;48.670;6.184;2023-02-28T01:46:33;0.75;;;0.13;;
50124;SDS011;36023;48.670;6.184;2023-02-28T01:49:03;0.20;;;0.10;;
50124;SDS011;36023;48.670;6.184;2023-02-28T01:54:13;0.43;;;0.20;;
50124;SDS011;36023;48.670;6.184;2023-02-28T01:56:44;0.73;;;0.20;;
50124;SDS011;36023;48.670;6.184;2023-02-28T01:59:19;0.63;;;0.17;;
50124;SDS011;36023;48.670;6.184;2023-02-28T02:01:49;0.40;;;0.20;;
50124;SDS011;36023;48.670;6.184;2023-02-28T02:04:19;0.85;;;0.40;;
50124;SDS011;36023;48.670;6.184;2023-02-28T02:06:46;0.50;;;0.20;;
50124;SDS011;36023;48.670;6.184;2023-02-28T02:09:13;0.50;;;0.20;;
50124;SDS011;36023;48.670;6.184;2023-02-28T02:11:40;0.20;;;0.20;;
50124;SDS011;36023;48.670;6.184;2023-02-28T03:12:40;0.20;;;0.10;;
50124;SDS011;36023;48.670;6.184;2023-02-28T03:15:20;1.63;;;0.28;;
50124;SDS011;36023;48.670;6.184;2023-02-28T03:17:55;0.55;;;0.25;;
50124;SDS011;36023;48.670;6.184;2023-02-28T03:23:13;0.82;;;0.50;;
50124;SDS011;36023;48.670;6.184;2023-02-28T03:25:51;0.28;;;0.20;;
50124;SDS011;36023;48.670;6.184;2023-02-28T03:31:04;0.40;;;0.32;;
50124;SDS011;36023;48.670;6.184;2023-02-28T03:33:39;0.30;;;0.20;;
50124;SDS011;36023;48.670;6.184;2023-02-28T03:36:12;0.10;;;0.10;;
50124;SDS011;36023;48.670;6.184;2023-02-28T03:38:44;0.70;;;0.30;;
50124;SDS011;36023;48.670;6.184;2023-02-28T03:41:24;1.17;;;0.30;;
50124;SDS011;36023;48.670;6.184;2023-02-28T03:43:58;0.30;;;0.20;;
50124;SDS011;36023;48.670;6.184;2023-02-28T03:46:32;0.30;;;0.20;;
50124;SDS011;36023;48.670;6.184;2023-02-28T03:49:03;0.30;;;0.20;;
50124;SDS011;36023;48.670;6.184;2023-02-28T03:51:37;0.35;;;0.15;;
50124;SDS011;36023;48.670;6.184;2023-02-28T03:54:08;0.20;;;0.20;;
50124;SDS011;36023;48.670;6.184;2023-02-28T03:56:41;0.13;;;0.10;;
50124;SDS011;36023;48.670;6.184;2023-02-28T03:59:13;0.20;;;0.20;;
50124;SDS011;36023;48.670;6.184;2023-02-28T04:02:01;0.73;;;0.40;;
50124;SDS011;36023;48.670;6.184;2023-02-28T04:04:28;1.17;;;0.22;;
50124;SDS011;36023;48.670;6.184;2023-02-28T04:07:03;1.67;;;0.68;;
50124;SDS011;36023;48.670;6.184;2023-02-28T04:09:31;0.43;;;0.30;;
50124;SDS011;36023;48.670;6.184;2023-02-28T04:11:56;0.80;;;0.50;;
50124;SDS011;36023;48.670;6.184;2023-02-28T04:14:22;0.10;;;0.10;;
50124;SDS011;36023;48.670;6.184;2023-02-28T04:16:48;0.43;;;0.40;;
50124;SDS011;36023;48.670;6.184;2023-02-28T04:19:16;0.35;;;0.20;;
50124;SDS011;36023;48.670;6.184;2023-02-28T04:21:42;2.20;;;0.60;;
50124;SDS011;36023;48.670;6.184;2023-02-28T04:24:11;0.60;;;0.20;;
50124;SDS011;36023;48.670;6.184;2023-02-28T04:26:40;0.45;;;0.20;;
50124;SDS011;36023;48.670;6.184;2023-02-28T04:29:09;0.40;;;0.20;;
50124;SDS011;36023;48.670;6.184;2023-02-28T04:31:35;0.98;;;0.40;;
50124;SDS011;36023;48.670;6.184;2023-02-28T04:34:01;0.47;;;0.20;;
50124;SDS011;36023;48.670;6.184;2023-02-28T04:36:27;0.35;;;0.15;;
50124;SDS011;36023;48.670;6.184;2023-02-28T04:38:52;0.45;;;0.45;;
50124;SDS011;36023;48.670;6.184;2023-02-28T04:41:18;0.80;;;0.17;;
50124;SDS011;36023;48.670;6.184;2023-02-28T04:43:44;0.47;;;0.13;;
50124;SDS011;36023;48.670;6.184;2023-02-28T04:46:10;0.28;;;0.20;;
50124;SDS011;36023;48.670;6.184;2023-02-28T04:48:37;0.88;;;0.47;;
50124;SDS011;36023;48.670;6.184;2023-02-28T04:51:04;0.60;;;0.30;;
50124;SDS011;36023;48.670;6.184;2023-02-28T04:53:34;0.77;;;0.28;;
50124;SDS011;36023;48.670;6.184;2023-02-28T04:56:03;0.50;;;0.10;;
50124;SDS011;36023;48.670;6.184;2023-02-28T04:58:31;0.10;;;0.10;;
50124;SDS011;36023;48.670;6.184;2023-02-28T05:01:01;0.73;;;0.22;;
50124;SDS011;36023;48.670;6.184;2023-02-28T05:03:41;0.10;;;0.10;;
50124;SDS011;36023;48.670;6.184;2023-02-28T05:06:08;0.35;;;0.20;;
50124;SDS011;36023;48.670;6.184;2023-02-28T05:08:36;0.28;;;0.17;;
50124;SDS011;36023;48.670;6.184;2023-02-28T05:11:02;0.52;;;0.30;;
50124;SDS011;36023;48.670;6.184;2023-02-28T05:13:29;0.25;;;0.15;;
50124;SDS011;36023;48.670;6.184;2023-02-28T05:15:55;0.57;;;0.38;;
50124;SDS011;36023;48.670;6.184;2023-02-28T05:18:21;0.65;;;0.28;;
50124;SDS011;36023;48.670;6.184;2023-02-28T05:20:47;0.43;;;0.20;;
50124;SDS011;36023;48.670;6.184;2023-02-28T05:23:13;0.32;;;0.20;;
50124;SDS011;36023;48.670;6.184;2023-02-28T05:25:39;0.70;;;0.38;;
50124;SDS011;36023;48.670;6.184;2023-02-28T05:28:06;0.52;;;0.20;;
50124;SDS011;36023;48.670;6.184;2023-02-28T05:30:32;0.60;;;0.40;;
50124;SDS011;36023;48.670;6.184;2023-02-28T05:32:58;1.13;;;0.25;;
50124;SDS011;36023;48.670;6.184;2023-02-28T05:35:24;0.50;;;0.40;;
50124;SDS011;36023;48.670;6.184;2023-02-28T05:37:50;0.20;;;0.20;;
50124;SDS011;36023;48.670;6.184;2023-02-28T05:40:16;0.30;;;0.10;;
50124;SDS011;36023;48.670;6.184;2023-02-28T05:42:43;0.15;;;0.00;;
50124;SDS011;36023;48.670;6.184;2023-02-28T05:45:09;0.80;;;0.15;;
50124;SDS011;36023;48.670;6.184;2023-02-28T05:47:35;0.08;;;0.00;;
50124;SDS011;36023;48.670;6.184;2023-02-28T05:50:01;2.92;;;0.20;;
50124;SDS011;36023;48.670;6.184;2023-02-28T05:52:27;0.43;;;0.20;;
50124;SDS011;36023;48.670;6.184;2023-02-28T05:54:56;0.22;;;0.20;;
50124;SDS011;36023;48.670;6.184;2023-02-28T05:57:22;0.28;;;0.13;;
50124;SDS011;36023;48.670;6.184;2023-02-28T05:59:49;0.32;;;0.20;;
50124;SDS011;36023;48.670;6.184;2023-02-28T06:02:15;0.28;;;0.08;;
50124;SDS011;36023;48.670;6.184;2023-02-28T06:04:44;0.63;;;0.30;;
50124;SDS011;36023;48.670;6.184;2023-02-28T06:07:11;0.30;;;0.20;;
50124;SDS011;36023;48.670;6.184;2023-02-28T06:09:37;0.30;;;0.17;;
50124;SDS011;36023;48.670;6.184;2023-02-28T06:12:04;0.88;;;0.20;;
50124;SDS011;36023;48.670;6.184;2023-02-28T06:14:35;0.10;;;0.05;;
50124;SDS011;36023;48.670;6.184;2023-02-28T06:17:01;0.40;;;0.10;;
50124;SDS011;36023;48.670;6.184;2023-02-28T06:19:28;0.80;;;0.20;;
50124;SDS011;36023;48.670;6.184;2023-02-28T06:21:55;0.10;;;0.10;;
50124;SDS011;36023;48.670;6.184;2023-02-28T06:24:23;0.50;;;0.20;;
50124;SDS011;36023;48.670;6.184;2023-02-28T06:26:49;0.10;;;0.10;;
50124;SDS011;36023;48.670;6.184;2023-02-28T06:29:16;0.30;;;0.20;;
50124;SDS011;36023;48.670;6.184;2023-02-28T06:31:44;0.20;;;0.20;;
50124;SDS011;36023;48.670;6.184;2023-02-28T06:34:10;0.30;;;0.20;;
50124;SDS011;36023;48.670;6.184;2023-02-28T06:36:37;0.70;;;0.30;;
50124;SDS011;36023;48.670;6.184;2023-02-28T06:39:04;0.55;;;0.30;;
50124;SDS011;36023;48.670;6.184;2023-02-28T06:41:31;0.20;;;0.13;;
50124;SDS011;36023;48.670;6.184;2023-02-28T06:44:04;0.10;;;0.10;;
50124;SDS011;36023;48.670;6.184;2023-02-28T06:46:31;0.50;;;0.20;;
50124;SDS011;36023;48.670;6.184;2023-02-28T06:48:56;0.35;;;0.10;;
50124;SDS011;36023;48.670;6.184;2023-02-28T06:51:22;0.73;;;0.40;;
50124;SDS011;36023;48.670;6.184;2023-02-28T06:53:49;0.50;;;0.20;;
50124;SDS011;36023;48.670;6.184;2023-02-28T06:56:16;0.93;;;0.20;;
50124;SDS011;36023;48.670;6.184;2023-02-28T06:58:48;0.22;;;0.13;;
50124;SDS011;36023;48.670;6.184;2023-02-28T07:01:16;0.90;;;0.40;;
50124;SDS011;36023;48.670;6.184;2023-02-28T07:03:42;0.52;;;0.40;;
50124;SDS011;36023;48.670;6.184;2023-02-28T07:06:09;2.05;;;0.22;;
50124;SDS011;36023;48.670;6.184;2023-02-28T07:08:35;0.32;;;0.25;;
50124;SDS011;36023;48.670;6.184;2023-02-28T07:11:01;0.50;;;0.10;;
50124;SDS011;36023;48.670;6.184;2023-02-28T07:13:27;1.73;;;0.50;;
50124;SDS011;36023;48.670;6.184;2023-02-28T07:15:53;1.00;;;0.35;;
50124;SDS011;36023;48.670;6.184;2023-02-28T07:18:20;0.98;;;0.73;;
50124;SDS011;36023;48.670;6.184;2023-02-28T07:20:47;1.80;;;0.22;;
50124;SDS011;36023;48.670;6.184;2023-02-28T07:23:12;2.58;;;0.40;;
50124;SDS011;36023;48.670;6.184;2023-02-28T07:25:38;2.63;;;0.80;;
50124;SDS011;36023;48.670;6.184;2023-02-28T07:28:04;2.22;;;0.98;;
50124;SDS011;36023;48.670;6.184;2023-02-28T07:30:30;1.50;;;0.30;;
50124;SDS011;36023;48.670;6.184;2023-02-28T07:32:55;1.08;;;0.50;;
50124;SDS011;36023;48.670;6.184;2023-02-28T07:35:21;0.90;;;0.28;;
50124;SDS011;36023;48.670;6.184;2023-02-28T07:37:47;0.75;;;0.63;;
50124;SDS011;36023;48.670;6.184;2023-02-28T07:40:14;3.03;;;0.47;;
50124;SDS011;36023;48.670;6.184;2023-02-28T07:42:40;1.95;;;0.40;;
50124;SDS011;36023;48.670;6.184;2023-02-28T07:45:08;3.78;;;0.57;;
50124;SDS011;36023;48.670;6.184;2023-02-28T07:47:40;22.13;;;1.55;;
50124;SDS011;36023;48.670;6.184;2023-02-28T07:50:09;1.02;;;0.40;;
50124;SDS011;36023;48.670;6.184;2023-02-28T07:52:36;1.23;;;0.77;;
50124;SDS011;36023;48.670;6.184;2023-02-28T07:55:04;2.85;;;0.30;;
50124;SDS011;36023;48.670;6.184;2023-02-28T07:57:31;0.93;;;0.20;;
50124;SDS011;36023;48.670;6.184;2023-02-28T07:59:57;3.97;;;0.70;;
50124;SDS011;36023;48.670;6.184;2023-02-28T08:02:23;0.52;;;0.40;;
50124;SDS011;36023;48.670;6.184;2023-02-28T08:04:49;1.13;;;0.45;;
50124;SDS011;36023;48.670;6.184;2023-02-28T08:07:15;0.52;;;0.52;;
50124;SDS011;36023;48.670;6.184;2023-02-28T08:09:41;2.15;;;0.38;;
50124;SDS011;36023;48.670;6.184;2023-02-28T08:12:08;1.20;;;0.25;;
50124;SDS011;36023;48.670;6.184;2023-02-28T08:14:35;1.25;;;0.50;;
50124;SDS011;36023;48.670;6.184;2023-02-28T08:17:01;1.58;;;0.43;;
50124;SDS011;36023;48.670;6.184;2023-02-28T08:19:28;1.30;;;0.30;;
50124;SDS011;36023;48.670;6.184;2023-02-28T08:21:54;0.63;;;0.45;;
50124;SDS011;36023;48.670;6.184;2023-02-28T08:24:20;0.20;;;0.20;;
50124;SDS011;36023;48.670;6.184;2023-02-28T08:26:45;2.53;;;0.32;;
50124;SDS011;36023;48.670;6.184;2023-02-28T08:29:11;0.52;;;0.20;;
50124;SDS011;36023;48.670;6.184;2023-02-28T08:31:37;0.60;;;0.38;;
50124;SDS011;36023;48.670;6.184;2023-02-28T08:34:07;0.32;;;0.30;;
50124;SDS011;36023;48.670;6.184;2023-02-28T08:36:33;0.20;;;0.20;;
50124;SDS011;36023;48.670;6.184;2023-02-28T08:39:00;0.57;;;0.28;;
50124;SDS011;36023;48.670;6.184;2023-02-28T08:41:25;0.50;;;0.20;;
50124;SDS011;36023;48.670;6.184;2023-02-28T08:43:52;0.45;;;0.40;;
50124;SDS011;36023;48.670;6.184;2023-02-28T08:46:19;0.57;;;0.20;;
50124;SDS011;36023;48.670;6.184;2023-02-28T08:48:45;1.00;;;0.30;;
50124;SDS011;36023;48.670;6.184;2023-02-28T08:51:15;22.10;;;0.77;;
50124;SDS011;36023;48.670;6.184;2023-02-28T08:53:44;1.08;;;0.63;;
50124;SDS011;36023;48.670;6.184;2023-02-28T08:56:12;2.00;;;0.30;;
50124;SDS011;36023;48.670;6.184;2023-02-28T08:58:39;2.67;;;0.20;;
50124;SDS011;36023;48.670;6.184;2023-02-28T09:01:12;1.95;;;0.57;;
50124;SDS011;36023;48.670;6.184;2023-02-28T09:03:41;1.20;;;0.63;;
50124;SDS011;36023;48.670;6.184;2023-02-28T09:06:08;0.80;;;0.60;;
50124;SDS011;36023;48.670;6.184;2023-02-28T09:08:37;0.68;;;0.30;;
50124;SDS011;36023;48.670;6.184;2023-02-28T09:11:03;0.57;;;0.35;;
50124;SDS011;36023;48.670;6.184;2023-02-28T09:13:30;0.50;;;0.20;;
50124;SDS011;36023;48.670;6.184;2023-02-28T09:15:57;0.80;;;0.50;;
50124;SDS011;36023;48.670;6.184;2023-02-28T09:18:24;4.45;;;0.65;;
50124;SDS011;36023;48.670;6.184;2023-02-28T09:20:52;2.67;;;0.52;;
50124;SDS011;36023;48.670;6.184;2023-02-28T09:23:17;0.68;;;0.35;;
50124;SDS011;36023;48.670;6.184;2023-02-28T09:25:53;1.30;;;0.43;;
50124;SDS011;36023;48.670;6.184;2023-02-28T09:28:20;1.88;;;0.40;;
50124;SDS011;36023;48.670;6.184;2023-02-28T09:30:47;2.13;;;0.40;;
50124;SDS011;36023;48.670;6.184;2023-02-28T09:33:15;0.40;;;0.28;;
50124;SDS011;36023;48.670;6.184;2023-02-28T09:35:41;0.52;;;0.30;;
50124;SDS011;36023;48.670;6.184;2023-02-28T09:38:08;0.50;;;0.40;;
50124;SDS011;36023;48.670;6.184;2023-02-28T09:40:38;0.65;;;0.30;;
50124;SDS011;36023;48.670;6.184;2023-02-28T09:43:11;0.98;;;0.60;;
50124;SDS011;36023;48.670;6.184;2023-02-28T09:45:41;1.60;;;0.38;;
50124;SDS011;36023;48.670;6.184;2023-02-28T09:48:21;0.82;;;0.28;;
50124;SDS011;36023;48.670;6.184;2023-02-28T09:50:51;1.02;;;0.40;;
50124;SDS011;36023;48.670;6.184;2023-02-28T09:53:36;0.98;;;0.38;;
50124;SDS011;36023;48.670;6.184;2023-02-28T09:56:08;0.43;;;0.30;;
50124;SDS011;36023;48.670;6.184;2023-02-28T09:58:48;1.20;;;0.30;;
50124;SDS011;36023;48.670;6.184;2023-02-28T10:01:20;0.60;;;0.30;;
50124;SDS011;36023;48.670;6.184;2023-02-28T10:03:56;0.73;;;0.30;;
50124;SDS011;36023;48.670;6.184;2023-02-28T10:06:28;2.03;;;0.45;;
50124;SDS011;36023;48.670;6.184;2023-02-28T10:09:00;1.25;;;0.50;;
50124;SDS011;36023;48.670;6.184;2023-02-28T10:11:29;2.78;;;0.70;;
50124;SDS011;36023;48.670;6.184;2023-02-28T10:14:02;0.38;;;0.30;;
50124;SDS011;36023;48.670;6.184;2023-02-28T10:16:42;0.35;;;0.20;;
50124;SDS011;36023;48.670;6.184;2023-02-28T10:19:14;0.80;;;0.45;;
50124;SDS011;36023;48.670;6.184;2023-02-28T10:24:53;0.50;;;0.38;;
50124;SDS011;36023;48.670;6.184;2023-02-28T10:27:22;2.05;;;0.73;;
50124;SDS011;36023;48.670;6.184;2023-02-28T10:29:51;1.58;;;0.60;;
50124;SDS011;36023;48.670;6.184;2023-02-28T10:32:20;0.57;;;0.40;;
50124;SDS011;36023;48.670;6.184;2023-02-28T10:34:58;0.43;;;0.32;;
50124;SDS011;36023;48.670;6.184;2023-02-28T10:37:30;0.57;;;0.47;;
50124;SDS011;36023;48.670;6.184;2023-02-28T10:39:58;0.63;;;0.43;;
50124;SDS011;36023;48.670;6.184;2023-02-28T10:42:26;0.85;;;0.73;;
50124;SDS011;36023;48.670;6.184;2023-02-28T10:45:13;0.50;;;0.20;;
50124;SDS011;36023;48.670;6.184;2023-02-28T10:47:48;0.55;;;0.30;;
50124;SDS011;36023;48.670;6.184;2023-02-28T10:55:59;1.02;;;0.60;;
50124;SDS011;36023;48.670;6.184;2023-02-28T10:58:30;1.00;;;0.52;;
50124;SDS011;36023;48.670;6.184;2023-02-28T11:01:12;1.35;;;0.80;;
50124;SDS011;36023;48.670;6.184;2023-02-28T11:03:40;0.93;;;0.50;;
50124;SDS011;36023;48.670;6.184;2023-02-28T11:06:07;1.55;;;0.68;;
50124;SDS011;36023;48.670;6.184;2023-02-28T11:08:58;0.40;;;0.30;;
50124;SDS011;36023;48.670;6.184;2023-02-28T11:11:27;1.75;;;0.68;;
50124;SDS011;36023;48.670;6.184;2023-02-28T11:14:05;0.80;;;0.60;;
50124;SDS011;36023;48.670;6.184;2023-02-28T11:16:42;1.45;;;0.40;;
50124;SDS011;36023;48.670;6.184;2023-02-28T11:19:15;1.20;;;0.47;;
50124;SDS011;36023;48.670;6.184;2023-02-28T11:21:53;1.35;;;0.75;;
50124;SDS011;36023;48.670;6.184;2023-02-28T11:24:29;0.70;;;0.38;;
50124;SDS011;36023;48.670;6.184;2023-02-28T11:27:01;0.90;;;0.45;;
50124;SDS011;36023;48.670;6.184;2023-02-28T11:29:28;1.10;;;0.45;;
50124;SDS011;36023;48.670;6.184;2023-02-28T11:32:07;1.33;;;0.60;;
50124;SDS011;36023;48.670;6.184;2023-02-28T11:34:40;1.25;;;0.52;;
50124;SDS011;36023;48.670;6.184;2023-02-28T11:37:14;1.40;;;0.43;;
50124;SDS011;36023;48.670;6.184;2023-02-28T11:39:43;0.40;;;0.30;;
50124;SDS011;36023;48.670;6.184;2023-02-28T11:50:21;0.95;;;0.40;;
50124;SDS011;36023;48.670;6.184;2023-02-28T11:52:56;0.60;;;0.60;;
50124;SDS011;36023;48.670;6.184;2023-02-28T11:55:31;0.73;;;0.28;;
50124;SDS011;36023;48.670;6.184;2023-02-28T11:58:24;0.85;;;0.40;;
50124;SDS011;36023;48.670;6.184;2023-02-28T12:06:36;1.27;;;0.45;;
50124;SDS011;36023;48.670;6.184;2023-02-28T12:09:18;0.90;;;0.50;;
50124;SDS011;36023;48.670;6.184;2023-02-28T12:11:52;1.15;;;0.57;;
50124;SDS011;36023;48.670;6.184;2023-02-28T12:17:05;2.05;;;0.50;;
50124;SDS011;36023;48.670;6.184;2023-02-28T12:27:56;1.38;;;0.55;;
50124;SDS011;36023;48.670;6.184;2023-02-28T12:30:23;1.63;;;0.80;;
50124;SDS011;36023;48.670;6.184;2023-02-28T12:33:03;0.45;;;0.30;;
50124;SDS011;36023;48.670;6.184;2023-02-28T12:35:32;0.50;;;0.30;;
50124;SDS011;36023;48.670;6.184;2023-02-28T12:44:12;1.13;;;1.02;;
50124;SDS011;36023;48.670;6.184;2023-02-28T12:46:44;1.05;;;0.55;;
50124;SDS011;36023;48.670;6.184;2023-02-28T12:49:17;1.90;;;1.23;;
50124;SDS011;36023;48.670;6.184;2023-02-28T12:51:49;2.42;;;0.60;;
50124;SDS011;36023;48.670;6.184;2023-02-28T12:54:22;1.00;;;0.50;;
50124;SDS011;36023;48.670;6.184;2023-02-28T12:56:57;1.42;;;0.73;;
50124;SDS011;36023;48.670;6.184;2023-02-28T12:59:43;1.20;;;0.80;;
50124;SDS011;36023;48.670;6.184;2023-02-28T13:10:57;2.05;;;0.60;;
50124;SDS011;36023;48.670;6.184;2023-02-28T13:13:24;2.35;;;0.95;;
50124;SDS011;36023;48.670;6.184;2023-02-28T13:16:08;1.55;;;0.60;;
50124;SDS011;36023;48.670;6.184;2023-02-28T13:21:09;1.48;;;0.80;;
50124;SDS011;36023;48.670;6.184;2023-02-28T13:26:22;1.20;;;0.83;;
50124;SDS011;36023;48.670;6.184;2023-02-28T13:31:14;1.00;;;0.73;;
50124;SDS011;36023;48.670;6.184;2023-02-28T13:34:26;0.90;;;0.68;;
50124;SDS011;36023;48.670;6.184;2023-02-28T13:36:40;0.90;;;0.43;;
50124;SDS011;36023;48.670;6.184;2023-02-28T13:39:44;2.33;;;1.00;;
50124;SDS011;36023;48.670;6.184;2023-02-28T13:56:04;1.23;;;0.70;;
50124;SDS011;36023;48.670;6.184;2023-02-28T13:58:35;5.10;;;1.30;;
50124;SDS011;36023;48.670;6.184;2023-02-28T14:07:08;1.88;;;0.90;;
50124;SDS011;36023;48.670;6.184;2023-02-28T14:09:44;1.45;;;0.80;;
50124;SDS011;36023;48.670;6.184;2023-02-28T14:15:39;1.42;;;0.75;;
50124;SDS011;36023;48.670;6.184;2023-02-28T14:18:22;2.20;;;0.90;;
50124;SDS011;36023;48.670;6.184;2023-02-28T14:35:18;1.00;;;0.43;;
50124;SDS011;36023;48.670;6.184;2023-02-28T14:37:55;1.67;;;1.00;;
50124;SDS011;36023;48.670;6.184;2023-02-28T14:40:25;0.90;;;0.63;;
50124;SDS011;36023;48.670;6.184;2023-02-28T14:42:55;2.10;;;0.77;;
50124;SDS011;36023;48.670;6.184;2023-02-28T14:45:23;1.88;;;0.93;;
50124;SDS011;36023;48.670;6.184;2023-02-28T14:47:55;1.92;;;0.73;;
50124;SDS011;36023;48.670;6.184;2023-02-28T14:50:23;1.92;;;0.82;;
50124;SDS011;36023;48.670;6.184;2023-02-28T14:52:52;1.58;;;1.08;;
50124;SDS011;36023;48.670;6.184;2023-02-28T14:55:23;1.15;;;0.50;;
50124;SDS011;36023;48.670;6.184;2023-02-28T14:57:56;0.95;;;0.40;;
50124;SDS011;36023;48.670;6.184;2023-02-28T15:00:28;1.75;;;0.98;;
50124;SDS011;36023;48.670;6.184;2023-02-28T15:02:56;1.02;;;0.47;;
50124;SDS011;36023;48.670;6.184;2023-02-28T15:08:04;1.48;;;0.85;;
50124;SDS011;36023;48.670;6.184;2023-02-28T15:10:39;1.48;;;0.63;;
50124;SDS011;36023;48.670;6.184;2023-02-28T15:13:36;1.45;;;0.73;;
50124;SDS011;36023;48.670;6.184;2023-02-28T15:16:08;1.15;;;0.70;;
50124;SDS011;36023;48.670;6.184;2023-02-28T15:18:59;0.93;;;0.52;;
50124;SDS011;36023;48.670;6.184;2023-02-28T15:21:28;1.52;;;0.90;;
50124;SDS011;36023;48.670;6.184;2023-02-28T15:24:19;1.80;;;0.90;;
50124;SDS011;36023;48.670;6.184;2023-02-28T15:27:06;1.90;;;0.70;;
50124;SDS011;36023;48.670;6.184;2023-02-28T15:29:42;0.82;;;0.63;;
50124;SDS011;36023;48.670;6.184;2023-02-28T15:32:31;1.38;;;0.82;;
50124;SDS011;36023;48.670;6.184;2023-02-28T15:37:47;1.05;;;0.80;;
50124;SDS011;36023;48.670;6.184;2023-02-28T15:40:23;2.83;;;0.95;;
50124;SDS011;36023;48.670;6.184;2023-02-28T15:42:59;1.92;;;0.88;;
50124;SDS011;36023;48.670;6.184;2023-02-28T15:45:34;1.15;;;0.65;;
50124;SDS011;36023;48.670;6.184;2023-02-28T15:48:05;1.30;;;0.75;;
50124;SDS011;36023;48.670;6.184;2023-02-28T15:50:41;1.27;;;0.73;;
50124;SDS011;36023;48.670;6.184;2023-02-28T15:53:12;1.95;;;0.95;;
50124;SDS011;36023;48.670;6.184;2023-02-28T15:55:42;1.33;;;0.60;;
50124;SDS011;36023;48.670;6.184;2023-02-28T15:58:09;2.40;;;0.90;;
50124;SDS011;36023;48.670;6.184;2023-02-28T16:00:38;1.60;;;1.05;;
50124;SDS011;36023;48.670;6.184;2023-02-28T16:08:49;2.20;;;0.70;;
50124;SDS011;36023;48.670;6.184;2023-02-28T16:11:16;2.03;;;0.95;;
50124;SDS011;36023;48.670;6.184;2023-02-28T16:13:43;1.55;;;0.88;;
50124;SDS011;36023;48.670;6.184;2023-02-28T16:16:14;1.17;;;0.90;;
50124;SDS011;36023;48.670;6.184;2023-02-28T16:18:42;1.48;;;0.82;;
50124;SDS011;36023;48.670;6.184;2023-02-28T16:21:08;1.88;;;1.02;;
50124;SDS011;36023;48.670;6.184;2023-02-28T16:23:33;1.17;;;0.68;;
50124;SDS011;36023;48.670;6.184;2023-02-28T16:25:59;2.13;;;0.68;;
50124;SDS011;36023;48.670;6.184;2023-02-28T16:28:30;0.70;;;0.40;;
50124;SDS011;36023;48.670;6.184;2023-02-28T16:31:02;2.03;;;0.75;;
50124;SDS011;36023;48.670;6.184;2023-02-28T16:33:31;1.88;;;0.93;;
50124;SDS011;36023;48.670;6.184;2023-02-28T16:35:58;0.80;;;0.50;;
50124;SDS011;36023;48.670;6.184;2023-02-28T16:38:24;0.90;;;0.60;;
50124;SDS011;36023;48.670;6.184;2023-02-28T16:40:51;1.10;;;0.70;;
50124;SDS011;36023;48.670;6.184;2023-02-28T16:43:22;1.00;;;0.60;;
50124;SDS011;36023;48.670;6.184;2023-02-28T16:45:56;1.42;;;0.90;;
50124;SDS011;36023;48.670;6.184;2023-02-28T16:48:26;1.10;;;0.77;;
50124;SDS011;36023;48.670;6.184;2023-02-28T16:50:52;1.40;;;0.80;;
50124;SDS011;36023;48.670;6.184;2023-02-28T16:53:18;1.60;;;0.77;;
50124;SDS011;36023;48.670;6.184;2023-02-28T16:55:44;1.33;;;0.88;;
50124;SDS011;36023;48.670;6.184;2023-02-28T16:58:13;2.50;;;0.65;;
50124;SDS011;36023;48.670;6.184;2023-02-28T17:00:41;1.17;;;0.60;;
50124;SDS011;36023;48.670;6.184;2023-02-28T17:03:22;2.90;;;0.70;;
50124;SDS011;36023;48.670;6.184;2023-02-28T17:05:49;1.50;;;0.80;;
50124;SDS011;36023;48.670;6.184;2023-02-28T17:08:16;1.55;;;0.90;;
50124;SDS011;36023;48.670;6.184;2023-02-28T17:10:41;1.42;;;0.75;;
50124;SDS011;36023;48.670;6.184;2023-02-28T17:13:07;2.20;;;1.08;;
50124;SDS011;36023;48.670;6.184;2023-02-28T17:15:33;1.05;;;0.63;;
50124;SDS011;36023;48.670;6.184;2023-02-28T17:17:59;3.42;;;1.20;;
50124;SDS011;36023;48.670;6.184;2023-02-28T17:20:25;2.88;;;0.90;;
50124;SDS011;36023;48.670;6.184;2023-02-28T17:22:54;4.57;;;1.20;;
50124;SDS011;36023;48.670;6.184;2023-02-28T17:25:21;0.55;;;0.52;;
50124;SDS011;36023;48.670;6.184;2023-02-28T17:27:48;3.10;;;0.95;;
50124;SDS011;36023;48.670;6.184;2023-02-28T17:30:18;2.33;;;1.08;;
50124;SDS011;36023;48.670;6.184;2023-02-28T17:32:46;1.88;;;0.80;;
50124;SDS011;36023;48.670;6.184;2023-02-28T17:35:12;2.00;;;0.90;;
50124;SDS011;36023;48.670;6.184;2023-02-28T17:37:38;5.70;;;1.05;;
50124;SDS011;36023;48.670;6.184;2023-02-28T17:40:05;1.30;;;0.75;;
50124;SDS011;36023;48.670;6.184;2023-02-28T17:42:32;1.10;;;0.70;;
50124;SDS011;36023;48.670;6.184;2023-02-28T17:44:58;0.95;;;0.60;;
50124;SDS011;36023;48.670;6.184;2023-02-28T17:47:24;2.05;;;0.80;;
50124;SDS011;36023;48.670;6.184;2023-02-28T17:49:49;1.58;;;0.90;;
50124;SDS011;36023;48.670;6.184;2023-02-28T17:52:15;1.13;;;0.70;;
50124;SDS011;36023;48.670;6.184;2023-02-28T17:54:41;2.35;;;1.42;;